createdAt,value
2022-12-12T00:00:35.834Z,19.55
2022-12-12T00:03:38.457Z,18.57
2022-12-12T00:06:43.270Z,18.73
2022-12-12T00:09:45.739Z,21.48
2022-12-12T00:12:48.214Z,19.45
2022-12-12T00:15:50.711Z,21.50
2022-12-12T00:18:54.059Z,16.93
2022-12-12T00:21:56.536Z,13.98
2022-12-12T00:24:58.935Z,13.52
2022-12-12T00:28:02.574Z,22.05
2022-12-12T00:31:05.248Z,19.40
2022-12-12T00:34:07.884Z,21.40
2022-12-12T00:37:10.371Z,24.33
2022-12-12T00:40:13.721Z,21.30
2022-12-12T00:43:16.248Z,23.10
2022-12-12T00:46:21.553Z,27.52
2022-12-12T00:49:24.712Z,28.33
2022-12-12T00:52:27.245Z,26.98
2022-12-12T00:55:29.684Z,23.55
2022-12-12T00:58:32.441Z,25.45
2022-12-12T01:01:35.616Z,25.77
2022-12-12T01:04:38.200Z,25.63
2022-12-12T01:07:40.738Z,27.65
2022-12-12T01:10:43.426Z,28.52
2022-12-12T01:13:48.088Z,31.15
2022-12-12T01:16:50.484Z,26.63
2022-12-12T01:19:53.851Z,21.43
2022-12-12T01:22:56.951Z,22.25
2022-12-12T01:26:01.592Z,34.38
2022-12-12T01:29:04.458Z,28.02
2022-12-12T01:32:06.868Z,26.00
2022-12-12T01:35:09.957Z,28.83
2022-12-12T01:38:12.766Z,26.25
2022-12-12T01:41:16.302Z,30.05
2022-12-12T01:44:46.007Z,31.60
2022-12-12T01:47:48.466Z,26.13
2022-12-12T01:50:51.137Z,30.17
2022-12-12T01:53:59.018Z,25.38
2022-12-12T01:57:04.808Z,31.33
2022-12-12T02:00:09.913Z,26.70
2022-12-12T02:03:12.543Z,24.23
2022-12-12T02:06:19.205Z,28.30
2022-12-12T02:09:23.044Z,27.45
2022-12-12T02:12:25.447Z,28.05
2022-12-12T02:15:31.600Z,38.53
2022-12-12T02:19:01.808Z,25.23
2022-12-12T02:22:39.145Z,32.03
2022-12-12T02:26:06.360Z,30.92
2022-12-12T02:29:46.820Z,22.25
2022-12-12T02:33:02.228Z,18.35
2022-12-12T02:36:38.733Z,30.17
2022-12-12T02:39:55.430Z,24.70
2022-12-12T02:43:10.541Z,30.67
2022-12-12T02:46:16.231Z,36.17
2022-12-12T02:49:24.052Z,26.73
2022-12-12T02:52:26.684Z,26.63
2022-12-12T02:55:32.464Z,29.17
2022-12-12T02:58:38.712Z,24.05
2022-12-12T03:02:08.098Z,22.85
2022-12-12T03:05:36.840Z,18.08
2022-12-12T03:08:48.350Z,22.40
2022-12-12T03:12:14.788Z,29.93
2022-12-12T03:15:27.527Z,25.48
2022-12-12T03:18:43.113Z,22.80
2022-12-12T03:21:54.997Z,23.83
2022-12-12T03:25:14.381Z,18.98
2022-12-12T03:28:38.336Z,20.33
2022-12-12T03:31:45.095Z,28.17
2022-12-12T03:34:56.212Z,26.13
2022-12-12T03:38:04.235Z,22.55
2022-12-12T03:41:11.728Z,35.35
2022-12-12T03:44:21.404Z,21.83
2022-12-12T03:47:33.637Z,22.10
2022-12-12T03:50:53.000Z,29.95
2022-12-12T03:54:18.625Z,30.52
2022-12-12T03:57:27.395Z,26.13
2022-12-12T04:00:33.471Z,25.30
2022-12-12T04:03:47.852Z,29.35
2022-12-12T04:07:04.073Z,27.55
2022-12-12T04:10:25.426Z,21.17
2022-12-12T04:13:35.715Z,28.88
2022-12-12T04:16:41.557Z,20.67
2022-12-12T04:20:12.296Z,35.67
2022-12-12T04:23:34.978Z,29.48
2022-12-12T04:26:51.275Z,30.27
2022-12-12T04:29:58.770Z,29.92
2022-12-12T04:33:09.320Z,32.10
2022-12-12T04:36:13.661Z,34.28
2022-12-12T04:39:18.924Z,31.35
2022-12-12T04:42:24.004Z,30.33
2022-12-12T04:45:36.370Z,38.97
2022-12-12T04:48:46.198Z,26.70
2022-12-12T04:51:52.565Z,33.10
2022-12-12T04:55:17.731Z,37.38
2022-12-12T04:58:20.148Z,40.25
2022-12-12T05:01:51.140Z,38.28
2022-12-12T05:05:07.305Z,36.23
2022-12-12T05:08:19.373Z,32.40
2022-12-12T05:11:22.591Z,36.90
2022-12-12T05:14:25.089Z,36.47
2022-12-12T05:17:31.208Z,39.00
2022-12-12T05:20:34.043Z,30.70
2022-12-12T05:23:36.426Z,34.80
2022-12-12T05:26:38.926Z,34.10
2022-12-12T05:29:41.509Z,39.60
2022-12-12T05:32:44.028Z,31.60
2022-12-12T05:35:46.470Z,22.50
2022-12-12T05:38:48.929Z,18.92
2022-12-12T05:41:51.440Z,19.75
2022-12-12T05:44:53.959Z,16.40
2022-12-12T05:47:56.440Z,17.52
2022-12-12T05:51:01.845Z,20.63
2022-12-12T05:54:04.330Z,24.60
2022-12-12T05:57:07.086Z,19.17
2022-12-12T06:00:10.436Z,17.67
2022-12-12T06:03:13.750Z,20.17
2022-12-12T06:06:16.228Z,15.43
2022-12-12T06:09:18.845Z,13.15
2022-12-12T06:12:21.627Z,14.73
2022-12-12T06:15:25.990Z,12.93
2022-12-12T06:18:28.427Z,14.30
2022-12-12T06:21:45.617Z,15.50
2022-12-12T06:24:47.998Z,14.18
2022-12-12T06:27:50.519Z,14.70
2022-12-12T06:30:55.902Z,12.23
2022-12-12T06:33:58.365Z,17.27
2022-12-12T06:37:01.049Z,20.70
2022-12-12T06:40:04.422Z,8.93
2022-12-12T06:43:07.551Z,16.45
2022-12-12T06:46:17.355Z,20.92
2022-12-12T06:49:19.844Z,17.33
2022-12-12T06:52:22.756Z,21.83
2022-12-12T06:55:25.158Z,19.98
2022-12-12T06:58:27.574Z,12.93
2022-12-12T07:01:30.247Z,15.75
2022-12-12T07:04:32.945Z,17.02
2022-12-12T07:07:35.480Z,14.00
2022-12-12T07:10:39.479Z,17.45
2022-12-12T07:13:42.308Z,10.55
2022-12-12T07:16:44.824Z,14.20
2022-12-12T07:19:47.177Z,17.13
2022-12-12T07:22:49.706Z,17.77
2022-12-12T07:25:52.114Z,15.13
2022-12-12T07:28:54.660Z,18.10
2022-12-12T07:31:57.474Z,11.25
2022-12-12T07:34:59.886Z,17.20
2022-12-12T07:38:03.297Z,19.47
2022-12-12T07:41:11.912Z,16.60
2022-12-12T07:44:15.895Z,15.82
2022-12-12T07:47:18.488Z,13.30
2022-12-12T07:50:21.151Z,18.70
2022-12-12T07:53:23.661Z,18.60
2022-12-12T07:56:26.109Z,20.08
2022-12-12T07:59:28.695Z,10.98
2022-12-12T08:02:31.790Z,8.68
2022-12-12T08:05:35.974Z,13.75
2022-12-12T08:08:39.880Z,10.53
2022-12-12T08:11:46.404Z,11.88
2022-12-12T08:14:49.654Z,9.35
2022-12-12T08:17:52.146Z,14.85
2022-12-12T08:20:54.781Z,14.43
2022-12-12T08:23:58.687Z,12.20
2022-12-12T08:27:01.828Z,14.65
2022-12-12T08:30:04.889Z,19.90
2022-12-12T08:33:08.545Z,12.88
2022-12-12T08:36:21.033Z,12.38
2022-12-12T08:39:23.566Z,8.60
2022-12-12T08:42:29.088Z,10.73
2022-12-12T08:45:31.752Z,11.27
2022-12-12T08:48:34.565Z,8.77
2022-12-12T08:51:40.996Z,8.88
2022-12-12T08:54:43.424Z,9.93
2022-12-12T08:57:46.141Z,16.70
2022-12-12T09:00:49.200Z,14.70
2022-12-12T09:03:53.268Z,12.88
2022-12-12T09:06:57.200Z,12.60
2022-12-12T09:10:00.473Z,13.13
2022-12-12T09:13:03.559Z,13.65
2022-12-12T09:16:08.094Z,8.63
2022-12-12T09:19:10.983Z,8.82
2022-12-12T09:22:13.424Z,12.82
2022-12-12T09:25:16.260Z,17.70
2022-12-12T09:28:20.115Z,13.05
2022-12-12T09:31:22.988Z,7.05
2022-12-12T09:34:25.604Z,7.88
2022-12-12T09:37:29.652Z,15.00
2022-12-12T09:40:58.672Z,11.33
2022-12-12T09:44:06.915Z,12.85
2022-12-12T09:47:15.785Z,14.25
2022-12-12T09:50:27.617Z,8.07
2022-12-12T09:53:30.474Z,14.40
2022-12-12T09:57:13.015Z,19.10
2022-12-12T10:00:18.992Z,16.73
2022-12-12T10:03:32.225Z,27.15
2022-12-12T10:06:41.779Z,19.92
2022-12-12T10:09:58.222Z,13.88
2022-12-12T10:13:03.375Z,9.83
2022-12-12T10:16:12.030Z,16.00
2022-12-12T10:19:22.849Z,14.88
2022-12-12T10:22:54.497Z,16.05
2022-12-12T10:26:03.687Z,10.07
2022-12-12T10:29:18.829Z,10.93
2022-12-12T10:32:25.865Z,12.48
2022-12-12T10:36:04.393Z,8.65
2022-12-12T10:39:33.071Z,11.73
2022-12-12T10:42:49.796Z,15.95
2022-12-12T10:46:16.673Z,13.13
2022-12-12T10:49:21.241Z,15.77
2022-12-12T10:52:23.689Z,12.57
2022-12-12T10:55:56.890Z,20.65
2022-12-12T10:59:02.080Z,26.80
2022-12-12T11:02:12.055Z,24.57
2022-12-12T11:05:16.847Z,13.57
2022-12-12T11:08:28.607Z,16.13
2022-12-12T11:11:31.088Z,13.43
2022-12-12T11:14:37.431Z,18.58
2022-12-12T11:17:40.823Z,12.10
2022-12-12T11:20:48.795Z,16.15
2022-12-12T11:23:54.413Z,12.80
2022-12-12T11:27:02.343Z,18.77
2022-12-12T11:30:22.748Z,15.35
2022-12-12T11:33:35.197Z,13.50
2022-12-12T11:36:38.962Z,15.50
2022-12-12T11:39:44.586Z,18.30
2022-12-12T11:42:47.117Z,14.23
2022-12-12T11:46:21.147Z,23.92
2022-12-12T11:49:23.812Z,16.07
2022-12-12T11:52:30.114Z,37.55
2022-12-12T11:55:51.377Z,46.85
2022-12-12T11:58:53.723Z,45.20
2022-12-12T12:02:20.639Z,17.30
2022-12-12T12:05:26.034Z,11.70
2022-12-12T12:08:50.726Z,20.95
2022-12-12T12:12:07.241Z,15.13
2022-12-12T12:15:34.477Z,17.80
2022-12-12T12:19:15.315Z,16.13
2022-12-12T12:22:29.612Z,11.50
2022-12-12T12:25:40.999Z,19.70
2022-12-12T12:29:09.528Z,13.38
2022-12-12T12:32:16.424Z,16.95
2022-12-12T12:35:21.780Z,25.25
2022-12-12T12:38:26.639Z,24.17
2022-12-12T12:41:37.623Z,37.83
2022-12-12T12:44:49.813Z,29.83
2022-12-12T12:48:14.563Z,19.90
2022-12-12T12:51:21.597Z,21.48
2022-12-12T12:54:26.117Z,22.57
2022-12-12T12:57:37.843Z,14.70
2022-12-12T13:00:42.658Z,24.35
2022-12-12T13:04:28.263Z,22.10
2022-12-12T13:07:40.619Z,25.52
2022-12-12T13:10:49.763Z,23.87
2022-12-12T13:13:55.636Z,21.90
2022-12-12T13:17:06.345Z,12.70
2022-12-12T13:20:18.580Z,13.82
2022-12-12T13:23:39.941Z,13.32
2022-12-12T13:26:51.824Z,20.47
2022-12-12T13:30:04.396Z,15.13
2022-12-12T13:33:10.117Z,14.48
2022-12-12T13:36:14.985Z,17.83
2022-12-12T13:39:30.171Z,17.90
2022-12-12T13:42:53.680Z,23.10
2022-12-12T13:46:21.024Z,19.70
2022-12-12T13:49:27.702Z,20.58
2022-12-12T13:52:32.909Z,18.02
2022-12-12T13:55:36.573Z,15.00
2022-12-12T13:58:39.098Z,18.77
2022-12-12T14:01:41.857Z,15.05
2022-12-12T14:04:44.672Z,15.27
2022-12-12T14:07:49.973Z,16.40
2022-12-12T14:11:01.619Z,24.90
2022-12-12T14:14:24.634Z,15.17
2022-12-12T14:17:29.920Z,24.73
2022-12-12T14:20:36.465Z,17.88
2022-12-12T14:23:42.464Z,20.15
2022-12-12T14:26:45.047Z,26.10
2022-12-12T14:29:47.473Z,20.40
2022-12-12T14:33:14.167Z,21.95
2022-12-12T14:36:22.287Z,18.10
2022-12-12T14:39:49.258Z,12.65
2022-12-12T14:43:19.997Z,12.65
2022-12-12T14:46:22.824Z,13.37
2022-12-12T14:49:25.884Z,16.38
2022-12-12T14:52:28.385Z,17.00
2022-12-12T14:55:31.090Z,16.60
2022-12-12T14:58:36.550Z,12.73
2022-12-12T15:01:47.816Z,37.03
2022-12-12T15:05:04.166Z,33.15
2022-12-12T15:08:18.938Z,18.23
2022-12-12T15:11:24.893Z,22.60
2022-12-12T15:14:28.009Z,25.45
2022-12-12T15:17:32.792Z,29.30
2022-12-12T15:20:35.404Z,21.52
2022-12-12T15:23:40.988Z,16.42
2022-12-12T15:26:45.273Z,15.60
2022-12-12T15:29:47.902Z,29.85
2022-12-12T15:32:50.634Z,24.57
2022-12-12T15:36:01.109Z,20.40
2022-12-12T15:39:17.069Z,17.88
2022-12-12T15:42:19.511Z,19.48
2022-12-12T15:45:25.725Z,20.35
2022-12-12T15:48:29.739Z,18.87
2022-12-12T15:51:32.640Z,20.48
2022-12-12T15:54:35.160Z,14.38
2022-12-12T15:57:45.374Z,20.55
2022-12-12T16:00:51.785Z,23.33
2022-12-12T16:03:54.141Z,27.37
2022-12-12T16:07:14.803Z,23.80
2022-12-12T16:10:22.262Z,35.65
2022-12-12T16:13:37.965Z,25.85
2022-12-12T16:16:40.361Z,24.90
2022-12-12T16:19:57.611Z,24.07
2022-12-12T16:23:33.687Z,27.02
2022-12-12T16:26:36.158Z,22.33
2022-12-12T16:29:38.632Z,29.02
2022-12-12T16:32:41.914Z,45.08
2022-12-12T16:35:44.345Z,34.17
2022-12-12T16:38:46.794Z,19.05
2022-12-12T16:41:49.905Z,21.00
2022-12-12T16:44:52.275Z,21.17
2022-12-12T16:47:55.297Z,21.90
2022-12-12T16:51:01.764Z,23.57
2022-12-12T16:54:04.261Z,20.40
2022-12-12T16:57:06.794Z,25.67
2022-12-12T17:00:10.685Z,25.20
2022-12-12T17:03:15.061Z,29.92
2022-12-12T17:06:17.508Z,20.50
2022-12-12T17:09:21.466Z,25.98
2022-12-12T17:12:25.280Z,25.02
2022-12-12T17:15:29.603Z,30.30
2022-12-12T17:18:32.418Z,30.02
2022-12-12T17:21:34.994Z,32.67
2022-12-12T17:24:37.502Z,33.63
2022-12-12T17:27:40.230Z,23.58
2022-12-12T17:30:43.578Z,22.00
2022-12-12T17:33:50.635Z,22.08
2022-12-12T17:36:53.743Z,20.67
2022-12-12T17:39:56.248Z,32.15
2022-12-12T17:42:59.081Z,22.08
2022-12-12T17:46:06.820Z,28.30
2022-12-12T17:49:09.524Z,25.15
2022-12-12T17:52:12.040Z,24.57
2022-12-12T17:55:53.043Z,24.83
2022-12-12T17:58:39.132Z,31.52
2022-12-12T18:01:41.633Z,15.68
2022-12-12T18:04:44.306Z,27.27
2022-12-12T18:07:46.913Z,20.37
2022-12-12T18:10:49.783Z,17.77
2022-12-12T18:13:54.853Z,27.73
2022-12-12T18:16:57.396Z,21.67
2022-12-12T18:20:00.240Z,23.88
2022-12-12T18:23:03.492Z,22.87
2022-12-12T18:26:11.537Z,25.85
2022-12-12T18:29:14.823Z,24.30
2022-12-12T18:32:17.954Z,23.45
2022-12-12T18:35:20.934Z,29.70
2022-12-12T18:38:23.906Z,27.23
2022-12-12T18:41:28.007Z,25.50
2022-12-12T18:44:30.660Z,25.67
2022-12-12T18:47:33.142Z,28.50
2022-12-12T18:50:37.679Z,28.20
2022-12-12T18:53:43.339Z,36.87
2022-12-12T18:56:47.682Z,29.98
2022-12-12T18:59:50.271Z,27.25
2022-12-12T19:02:53.837Z,30.58
2022-12-12T19:05:56.740Z,39.05
2022-12-12T19:09:08.380Z,36.57
2022-12-12T19:12:11.019Z,32.63
2022-12-12T19:15:17.631Z,32.28
2022-12-12T19:18:21.014Z,27.67
2022-12-12T19:21:25.270Z,24.95
2022-12-12T19:24:28.001Z,27.33
2022-12-12T19:27:31.672Z,29.33
2022-12-12T19:30:40.190Z,33.45
2022-12-12T19:33:44.434Z,42.45
2022-12-12T19:36:47.565Z,35.65
2022-12-12T19:39:52.254Z,26.73
2022-12-12T19:42:54.997Z,26.00
2022-12-12T19:46:15.630Z,27.48
2022-12-12T19:49:18.623Z,37.50
2022-12-12T19:52:21.535Z,42.88
2022-12-12T19:55:24.436Z,33.53
2022-12-12T19:58:27.743Z,36.30
2022-12-12T20:01:32.948Z,40.55
2022-12-12T20:04:36.138Z,34.33
2022-12-12T20:07:39.134Z,35.28
2022-12-12T20:10:42.865Z,44.27
2022-12-12T20:13:49.559Z,58.80
2022-12-12T20:16:53.915Z,43.38
2022-12-12T20:19:56.713Z,46.33
2022-12-12T20:22:59.649Z,48.05
2022-12-12T20:26:05.009Z,40.07
2022-12-12T20:29:08.827Z,35.33
2022-12-12T20:32:13.427Z,40.45
2022-12-12T20:35:16.213Z,33.55
2022-12-12T20:38:18.972Z,42.58
2022-12-12T20:41:24.589Z,33.27
2022-12-12T20:44:29.145Z,48.72
2022-12-12T20:47:32.590Z,66.10
2022-12-12T20:50:37.032Z,73.75
2022-12-12T20:53:40.762Z,77.25
2022-12-12T20:56:46.430Z,108.63
2022-12-12T20:59:49.452Z,131.00
2022-12-12T21:02:52.020Z,135.82
2022-12-12T21:05:54.504Z,116.00
2022-12-12T21:09:00.518Z,129.25
2022-12-12T21:12:03.221Z,92.53
2022-12-12T21:15:06.013Z,81.65
2022-12-12T21:18:08.564Z,78.35
2022-12-12T21:21:11.886Z,90.70
2022-12-12T21:24:16.915Z,63.55
2022-12-12T21:27:19.509Z,95.83
2022-12-12T21:30:22.135Z,98.15
2022-12-12T21:33:26.135Z,77.57
2022-12-12T21:36:29.479Z,81.82
2022-12-12T21:39:32.644Z,77.18
2022-12-12T21:42:35.416Z,72.50
2022-12-12T21:45:38.344Z,81.00
2022-12-12T21:48:42.023Z,80.97
2022-12-12T21:51:44.885Z,85.55
2022-12-12T21:54:47.383Z,96.82
2022-12-12T21:57:49.789Z,104.57
2022-12-12T22:00:52.241Z,112.13
2022-12-12T22:03:55.111Z,113.05
2022-12-12T22:06:57.814Z,53.60
2022-12-12T22:10:10.815Z,49.05
2022-12-12T22:13:14.287Z,108.63
2022-12-12T22:16:19.435Z,88.78
2022-12-12T22:19:21.974Z,59.80
2022-12-12T22:22:24.698Z,49.53
2022-12-12T22:25:28.641Z,38.92
2022-12-12T22:28:31.029Z,37.63
2022-12-12T22:31:35.405Z,69.47
2022-12-12T22:34:37.908Z,36.78
2022-12-12T22:37:40.300Z,45.78
2022-12-12T22:40:53.256Z,46.88
2022-12-12T22:43:57.823Z,52.17
2022-12-12T22:47:00.317Z,51.10
2022-12-12T22:50:03.014Z,37.97
2022-12-12T22:53:07.699Z,41.30
2022-12-12T22:56:10.490Z,37.75
2022-12-12T22:59:13.636Z,36.67
2022-12-12T23:02:21.564Z,32.65
2022-12-12T23:05:27.246Z,31.55
2022-12-12T23:08:30.082Z,36.78
2022-12-12T23:11:33.783Z,38.20
2022-12-12T23:14:36.151Z,52.43
2022-12-12T23:17:38.594Z,51.47
2022-12-12T23:20:41.549Z,55.67
2022-12-12T23:23:44.974Z,43.50
2022-12-12T23:26:50.692Z,39.50
2022-12-12T23:29:54.095Z,38.07
2022-12-12T23:32:56.556Z,32.03
2022-12-12T23:35:59.123Z,29.45
2022-12-12T23:39:06.227Z,36.53
2022-12-12T23:42:08.704Z,41.50
2022-12-12T23:45:11.176Z,43.90
2022-12-12T23:48:13.965Z,49.17
2022-12-12T23:51:17.184Z,48.08
2022-12-12T23:54:33.677Z,38.63
2022-12-12T23:57:36.059Z,49.97
